createdAt,value
2023-05-04T00:03:46.995Z,998.89
2023-05-04T00:08:50.758Z,998.78
2023-05-04T00:13:54.925Z,998.87
2023-05-04T00:18:59.173Z,999.06
2023-05-04T00:24:03.226Z,999.29
2023-05-04T00:29:05.495Z,999.46
2023-05-04T00:34:09.657Z,1000.53
2023-05-04T00:39:11.951Z,1000.83
2023-05-04T00:44:16.133Z,1002.70
2023-05-04T00:49:20.274Z,1002.87
2023-05-04T00:54:24.446Z,1002.94
2023-05-04T00:59:28.590Z,1003.05
2023-05-04T01:04:32.767Z,1003.05
2023-05-04T01:09:36.938Z,1003.09
2023-05-04T01:14:41.094Z,1003.11
2023-05-04T01:19:45.277Z,1003.10
2023-05-04T01:24:49.408Z,1003.08
2023-05-04T01:29:53.569Z,1003.05
2023-05-04T01:34:57.728Z,1003.05
2023-05-04T01:40:02.114Z,1002.84
2023-05-04T01:45:06.087Z,1002.72
2023-05-04T01:50:10.210Z,1002.51
2023-05-04T01:55:14.418Z,1002.51
2023-05-04T02:00:18.563Z,1002.40
2023-05-04T02:05:22.728Z,1002.27
2023-05-04T02:10:26.916Z,1002.13
2023-05-04T02:15:31.044Z,1001.98
2023-05-04T02:20:35.258Z,1001.93
2023-05-04T02:25:37.468Z,1001.94
2023-05-04T02:30:41.653Z,1001.86
2023-05-04T02:35:43.930Z,1001.76
2023-05-04T02:40:48.080Z,1001.69
2023-05-04T02:45:52.263Z,1001.55
2023-05-04T02:50:56.390Z,1001.51
2023-05-04T02:56:00.614Z,1001.45
2023-05-04T03:01:04.800Z,1001.46
2023-05-04T03:06:08.915Z,1001.38
2023-05-04T03:11:13.066Z,1001.37
2023-05-04T03:16:17.254Z,1001.27
2023-05-04T03:21:21.449Z,1001.24
2023-05-04T03:26:25.583Z,1001.08
2023-05-04T03:31:29.778Z,1000.97
2023-05-04T03:36:33.922Z,1000.74
2023-05-04T03:41:38.048Z,1000.59
2023-05-04T03:46:42.210Z,1000.52
2023-05-04T03:51:46.359Z,1000.39
2023-05-04T03:56:50.536Z,1000.34
2023-05-04T04:01:54.737Z,1000.44
2023-05-04T04:06:58.886Z,1000.48
2023-05-04T04:12:03.111Z,1000.45
2023-05-04T04:17:07.251Z,1000.53
2023-05-04T04:22:09.471Z,1000.54
2023-05-04T04:27:13.660Z,1000.42
2023-05-04T04:32:15.907Z,1000.42
2023-05-04T04:37:20.074Z,1000.23
2023-05-04T04:42:24.238Z,1000.17
2023-05-04T04:47:28.457Z,1000.18
2023-05-04T04:52:32.586Z,1000.20
2023-05-04T04:57:36.716Z,1000.22
2023-05-04T05:02:40.917Z,1000.15
2023-05-04T05:07:45.070Z,1000.13
2023-05-04T05:12:49.250Z,1000.11
2023-05-04T05:17:51.537Z,1000.09
2023-05-04T05:22:55.669Z,1000.06
2023-05-04T05:27:59.843Z,1000.04
2023-05-04T05:33:04.070Z,999.92
2023-05-04T05:38:08.144Z,999.76
2023-05-04T05:43:12.288Z,999.75
2023-05-04T05:48:16.563Z,999.56
2023-05-04T05:53:20.629Z,999.33
2023-05-04T05:58:24.824Z,999.28
2023-05-04T06:03:29.077Z,999.11
2023-05-04T06:08:33.158Z,998.86
2023-05-04T06:13:37.252Z,998.81
2023-05-04T06:18:39.556Z,999.00
2023-05-04T06:23:43.744Z,999.10
2023-05-04T06:28:47.888Z,999.22
2023-05-04T06:33:52.083Z,999.43
2023-05-04T06:38:56.201Z,999.80
2023-05-04T06:44:00.358Z,1000.06
2023-05-04T06:49:04.534Z,1000.11
2023-05-04T06:54:08.678Z,1000.32
2023-05-04T06:59:12.841Z,1000.28
2023-05-04T07:04:16.987Z,1000.35
2023-05-04T07:09:21.194Z,1000.29
2023-05-04T07:14:25.325Z,1000.35
2023-05-04T07:19:29.472Z,1000.16
2023-05-04T07:24:33.670Z,999.58
2023-05-04T07:29:37.801Z,999.17
2023-05-04T07:34:46.275Z,998.82
2023-05-04T07:39:46.116Z,998.62
2023-05-04T07:44:50.307Z,998.51
2023-05-04T07:49:54.423Z,998.47
2023-05-04T07:54:58.624Z,998.33
2023-05-04T08:00:03.151Z,998.08
2023-05-04T08:05:05.023Z,998.13
2023-05-04T08:10:09.241Z,998.03
2023-05-04T08:15:11.479Z,998.07
2023-05-04T08:20:15.621Z,998.26
2023-05-04T08:25:19.761Z,998.47
2023-05-04T08:30:23.973Z,999.15
2023-05-04T08:35:28.145Z,1002.30
2023-05-04T08:40:32.261Z,1007.49
2023-05-04T08:45:36.459Z,1008.52
2023-05-04T08:50:40.578Z,1008.75
2023-05-04T08:55:44.759Z,1009.10
2023-05-04T09:00:48.952Z,1009.24
2023-05-04T09:05:53.046Z,1009.55
2023-05-04T09:10:57.216Z,1009.76
2023-05-04T09:16:01.484Z,1009.77
2023-05-04T09:21:05.534Z,1009.80
2023-05-04T09:26:09.720Z,1009.71
2023-05-04T09:31:13.905Z,1009.97
2023-05-04T09:36:18.030Z,1009.95
2023-05-04T09:41:22.170Z,1010.14
2023-05-04T09:46:26.371Z,1010.15
2023-05-04T09:51:30.500Z,1010.22
2023-05-04T09:56:34.664Z,1010.08
2023-05-04T10:01:36.987Z,1010.22
2023-05-04T10:06:41.074Z,1010.08
2023-05-04T10:11:43.364Z,1010.05
2023-05-04T10:16:47.492Z,1010.08
2023-05-04T10:21:51.679Z,1009.95
2023-05-04T10:26:55.858Z,1009.84
2023-05-04T10:32:00.128Z,1009.86
2023-05-04T10:37:04.180Z,1009.75
2023-05-04T10:42:08.301Z,1009.75
2023-05-04T10:47:12.480Z,1009.72
2023-05-04T10:52:16.613Z,1009.68
2023-05-04T10:57:20.778Z,1009.51
2023-05-04T11:02:24.980Z,1009.46
2023-05-04T11:07:29.106Z,1009.32
2023-05-04T11:12:33.311Z,1009.17
2023-05-04T11:17:37.425Z,1009.20
2023-05-04T11:22:41.558Z,1008.99
2023-05-04T11:27:45.750Z,1008.98
2023-05-04T11:32:49.947Z,1008.91
2023-05-04T11:37:54.046Z,1008.91
2023-05-04T11:42:58.234Z,1008.79
2023-05-04T11:48:02.440Z,1008.63
2023-05-04T11:53:06.529Z,1008.62
2023-05-04T11:58:08.847Z,1008.56
2023-05-04T12:03:13.215Z,1008.39
2023-05-04T12:08:15.247Z,1008.38
2023-05-04T12:13:19.536Z,1008.42
2023-05-04T12:18:23.574Z,1008.33
2023-05-04T12:23:27.703Z,1008.19
2023-05-04T12:28:31.888Z,1008.26
2023-05-04T12:33:36.091Z,1008.05
2023-05-04T12:38:40.219Z,1008.10
2023-05-04T12:43:44.376Z,1008.04
2023-05-04T12:48:48.503Z,1008.02
2023-05-04T12:53:52.669Z,1007.91
2023-05-04T12:58:56.860Z,1007.78
2023-05-04T13:04:00.974Z,1007.73
2023-05-04T13:09:05.137Z,1007.68
2023-05-04T13:14:09.335Z,1007.52
2023-05-04T13:19:13.454Z,1007.39
2023-05-04T13:24:17.636Z,1007.40
2023-05-04T13:29:21.761Z,1007.31
2023-05-04T13:34:25.961Z,1007.25
2023-05-04T13:39:30.120Z,1007.14
2023-05-04T13:44:34.258Z,1007.03
2023-05-04T13:49:38.394Z,1007.03
2023-05-04T13:54:40.667Z,1006.96
2023-05-04T13:59:58.393Z,1006.83
2023-05-04T14:04:47.102Z,1006.73
2023-05-04T14:09:51.307Z,1006.60
2023-05-04T14:14:53.540Z,1006.58
2023-05-04T14:19:57.710Z,1006.45
2023-05-04T14:25:01.850Z,1006.51
2023-05-04T14:30:06.100Z,1006.32
2023-05-04T14:35:10.506Z,1006.37
2023-05-04T14:40:14.454Z,1006.35
2023-05-04T14:45:18.518Z,1006.33
2023-05-04T14:50:22.660Z,1006.21
2023-05-04T14:55:26.852Z,1006.19
2023-05-04T15:00:30.975Z,1006.13
2023-05-04T15:05:35.143Z,1006.06
2023-05-04T15:10:39.319Z,1005.93
2023-05-04T15:15:43.524Z,1005.87
2023-05-04T15:20:47.643Z,1005.89
2023-05-04T15:25:51.780Z,1005.78
2023-05-04T15:30:55.918Z,1005.62
2023-05-04T15:36:00.122Z,1005.64
2023-05-04T15:41:04.243Z,1005.69
2023-05-04T15:46:08.355Z,1005.61
2023-05-04T15:51:12.584Z,1005.59
2023-05-04T15:56:16.692Z,1005.59
2023-05-04T16:01:18.995Z,1005.54
2023-05-04T16:06:23.840Z,1005.56
2023-05-04T16:11:27.319Z,1005.52
2023-05-04T16:16:29.576Z,1005.40
2023-05-04T16:21:33.696Z,1005.32
2023-05-04T16:26:37.900Z,1005.41
2023-05-04T16:31:42.070Z,1005.33
2023-05-04T16:36:46.219Z,1005.29
2023-05-04T16:41:50.372Z,1005.24
2023-05-04T16:46:54.549Z,1005.29
2023-05-04T16:51:58.690Z,1005.19
2023-05-04T16:57:02.852Z,1005.17
2023-05-04T17:02:07.141Z,1005.13
2023-05-04T17:07:11.235Z,1005.09
2023-05-04T17:12:15.295Z,1005.05
2023-05-04T17:17:19.483Z,1005.15
2023-05-04T17:22:23.673Z,1005.17
2023-05-04T17:27:27.818Z,1005.20
2023-05-04T17:32:32.041Z,1005.27
2023-05-04T17:37:36.125Z,1005.28
2023-05-04T17:42:40.293Z,1005.29
2023-05-04T17:48:03.738Z,1005.29
2023-05-04T17:52:48.585Z,1005.31
2023-05-04T17:57:52.734Z,1005.41
2023-05-04T18:02:55.137Z,1005.30
2023-05-04T18:07:59.186Z,1005.30
2023-05-04T18:13:01.492Z,1005.38
2023-05-04T18:18:05.665Z,1005.53
2023-05-04T18:23:09.737Z,1005.58
2023-05-04T18:28:13.916Z,1005.47
2023-05-04T18:33:18.107Z,1005.55
2023-05-04T18:38:22.228Z,1005.63
2023-05-04T18:43:26.390Z,1005.56
2023-05-04T18:48:30.712Z,1005.62
2023-05-04T18:53:34.697Z,1005.61
2023-05-04T18:58:38.916Z,1005.74
2023-05-04T19:08:47.314Z,1005.65
2023-05-04T19:13:51.389Z,1005.66
2023-05-04T19:18:55.522Z,1005.56
2023-05-04T19:23:59.820Z,1005.56
2023-05-04T19:29:03.837Z,1005.57
2023-05-04T19:34:07.981Z,1005.46
2023-05-04T19:39:12.154Z,1005.34
2023-05-04T19:44:16.325Z,1005.25
2023-05-04T19:49:20.481Z,1005.07
2023-05-04T19:54:24.649Z,1004.93
2023-05-04T19:59:28.786Z,1004.50
2023-05-04T20:04:31.062Z,1004.03
2023-05-04T20:09:35.218Z,1003.24
2023-05-04T20:14:39.343Z,1002.91
2023-05-04T20:19:41.636Z,1003.03
2023-05-04T20:24:45.839Z,1002.41
2023-05-04T20:29:49.942Z,1002.93
2023-05-04T20:34:54.142Z,1003.10
2023-05-04T20:39:58.340Z,1003.49
2023-05-04T20:45:02.465Z,1003.94
2023-05-04T20:50:06.852Z,1003.88
2023-05-04T20:55:10.740Z,1003.88
2023-05-04T21:00:14.928Z,1003.85
2023-05-04T21:05:19.084Z,1003.97
2023-05-04T21:10:23.253Z,1003.86
2023-05-04T21:15:27.403Z,1003.96
2023-05-04T21:20:31.579Z,1003.84
2023-05-04T21:25:35.748Z,1003.95
2023-05-04T21:30:39.859Z,1003.96
2023-05-04T21:35:44.039Z,1004.05
2023-05-04T21:40:48.202Z,1003.85
2023-05-04T21:45:52.342Z,1003.92
2023-05-04T21:50:56.537Z,1003.94
2023-05-04T21:56:00.690Z,1003.90
2023-05-04T22:01:04.830Z,1004.15
2023-05-04T22:06:07.077Z,1003.88
2023-05-04T22:11:11.276Z,1004.09
2023-05-04T22:16:13.560Z,1004.02
2023-05-04T22:21:17.671Z,1004.13
2023-05-04T22:26:21.836Z,1004.17
2023-05-04T22:31:26.070Z,1004.25
2023-05-04T22:36:30.158Z,1004.33
2023-05-04T22:41:34.342Z,1004.32
2023-05-04T22:46:38.524Z,1004.44
2023-05-04T22:51:42.678Z,1004.47
2023-05-04T22:56:46.811Z,1004.40
2023-05-04T23:01:50.972Z,1004.40
2023-05-04T23:06:55.117Z,1004.56
2023-05-04T23:11:59.257Z,1004.53
2023-05-04T23:17:03.454Z,1004.61
2023-05-04T23:22:07.596Z,1004.69
2023-05-04T23:27:11.782Z,1004.61
2023-05-04T23:32:15.931Z,1004.62
2023-05-04T23:37:20.091Z,1004.60
2023-05-04T23:42:24.220Z,1004.58
2023-05-04T23:47:28.416Z,1004.61
2023-05-04T23:57:34.841Z,1004.58
